sensor_id;sensor_type;location;lat;lon;timestamp;P1;durP1;ratioP1;P2;durP2;ratioP2
11008;SDS011;5557;51.670;7.788;2022-07-22T00:00:54;5.57;;;5.27;;
11008;SDS011;5557;51.670;7.788;2022-07-22T00:03:22;5.77;;;5.47;;
11008;SDS011;5557;51.670;7.788;2022-07-22T00:05:49;5.07;;;4.80;;
11008;SDS011;5557;51.670;7.788;2022-07-22T00:08:16;5.10;;;4.90;;
11008;SDS011;5557;51.670;7.788;2022-07-22T00:10:43;5.30;;;5.10;;
11008;SDS011;5557;51.670;7.788;2022-07-22T00:13:10;6.40;;;5.23;;
11008;SDS011;5557;51.670;7.788;2022-07-22T00:15:38;5.70;;;5.23;;
11008;SDS011;5557;51.670;7.788;2022-07-22T00:18:05;6.90;;;5.30;;
11008;SDS011;5557;51.670;7.788;2022-07-22T00:20:32;5.70;;;5.30;;
11008;SDS011;5557;51.670;7.788;2022-07-22T00:22:59;4.70;;;4.50;;
11008;SDS011;5557;51.670;7.788;2022-07-22T00:25:27;6.07;;;5.40;;
11008;SDS011;5557;51.670;7.788;2022-07-22T00:27:54;5.23;;;4.70;;
11008;SDS011;5557;51.670;7.788;2022-07-22T00:30:22;5.90;;;5.30;;
11008;SDS011;5557;51.670;7.788;2022-07-22T00:32:51;4.83;;;4.50;;
11008;SDS011;5557;51.670;7.788;2022-07-22T00:35:18;4.90;;;4.60;;
11008;SDS011;5557;51.670;7.788;2022-07-22T00:37:45;7.30;;;5.30;;
11008;SDS011;5557;51.670;7.788;2022-07-22T00:40:12;7.57;;;4.40;;
11008;SDS011;5557;51.670;7.788;2022-07-22T00:42:40;4.60;;;4.07;;
11008;SDS011;5557;51.670;7.788;2022-07-22T00:45:08;6.43;;;4.03;;
11008;SDS011;5557;51.670;7.788;2022-07-22T00:47:35;4.37;;;4.17;;
11008;SDS011;5557;51.670;7.788;2022-07-22T00:50:03;3.97;;;3.67;;
11008;SDS011;5557;51.670;7.788;2022-07-22T00:52:32;4.23;;;3.93;;
11008;SDS011;5557;51.670;7.788;2022-07-22T00:55:00;4.20;;;3.90;;
11008;SDS011;5557;51.670;7.788;2022-07-22T00:57:27;3.83;;;3.53;;
11008;SDS011;5557;51.670;7.788;2022-07-22T00:59:55;3.40;;;3.10;;
11008;SDS011;5557;51.670;7.788;2022-07-22T01:02:23;3.57;;;3.37;;
11008;SDS011;5557;51.670;7.788;2022-07-22T01:04:50;4.10;;;3.90;;
11008;SDS011;5557;51.670;7.788;2022-07-22T01:07:17;3.00;;;2.80;;
11008;SDS011;5557;51.670;7.788;2022-07-22T01:09:45;5.90;;;3.60;;
11008;SDS011;5557;51.670;7.788;2022-07-22T01:12:13;3.67;;;3.00;;
11008;SDS011;5557;51.670;7.788;2022-07-22T01:14:40;4.60;;;2.50;;
11008;SDS011;5557;51.670;7.788;2022-07-22T01:17:07;3.00;;;2.90;;
11008;SDS011;5557;51.670;7.788;2022-07-22T01:19:35;2.97;;;2.77;;
11008;SDS011;5557;51.670;7.788;2022-07-22T01:22:04;2.73;;;2.63;;
11008;SDS011;5557;51.670;7.788;2022-07-22T01:24:31;3.40;;;3.10;;
11008;SDS011;5557;51.670;7.788;2022-07-22T01:26:58;3.60;;;3.40;;
11008;SDS011;5557;51.670;7.788;2022-07-22T01:29:26;3.50;;;3.30;;
11008;SDS011;5557;51.670;7.788;2022-07-22T01:31:57;3.90;;;3.70;;
11008;SDS011;5557;51.670;7.788;2022-07-22T01:34:24;4.80;;;4.57;;
11008;SDS011;5557;51.670;7.788;2022-07-22T01:36:51;5.17;;;4.93;;
11008;SDS011;5557;51.670;7.788;2022-07-22T01:39:19;4.67;;;4.30;;
11008;SDS011;5557;51.670;7.788;2022-07-22T01:41:46;6.60;;;4.90;;
11008;SDS011;5557;51.670;7.788;2022-07-22T01:44:13;3.77;;;3.47;;
11008;SDS011;5557;51.670;7.788;2022-07-22T01:46:40;4.87;;;4.50;;
11008;SDS011;5557;51.670;7.788;2022-07-22T01:49:07;4.80;;;4.40;;
11008;SDS011;5557;51.670;7.788;2022-07-22T01:51:34;4.23;;;3.93;;
11008;SDS011;5557;51.670;7.788;2022-07-22T01:54:01;4.13;;;3.93;;
11008;SDS011;5557;51.670;7.788;2022-07-22T01:56:29;4.10;;;3.90;;
11008;SDS011;5557;51.670;7.788;2022-07-22T01:58:56;4.37;;;4.07;;
11008;SDS011;5557;51.670;7.788;2022-07-22T02:01:23;4.00;;;3.70;;
11008;SDS011;5557;51.670;7.788;2022-07-22T02:03:51;5.73;;;3.97;;
11008;SDS011;5557;51.670;7.788;2022-07-22T02:06:18;10.53;;;3.90;;
11008;SDS011;5557;51.670;7.788;2022-07-22T02:08:45;3.97;;;3.60;;
11008;SDS011;5557;51.670;7.788;2022-07-22T02:11:12;3.97;;;3.53;;
11008;SDS011;5557;51.670;7.788;2022-07-22T02:13:39;5.93;;;4.60;;
11008;SDS011;5557;51.670;7.788;2022-07-22T02:16:06;9.53;;;3.80;;
11008;SDS011;5557;51.670;7.788;2022-07-22T02:18:33;4.53;;;3.67;;
11008;SDS011;5557;51.670;7.788;2022-07-22T02:21:00;3.90;;;3.70;;
11008;SDS011;5557;51.670;7.788;2022-07-22T02:23:27;3.47;;;3.27;;
11008;SDS011;5557;51.670;7.788;2022-07-22T02:25:53;21.83;;;5.60;;
11008;SDS011;5557;51.670;7.788;2022-07-22T02:28:20;5.07;;;4.23;;
11008;SDS011;5557;51.670;7.788;2022-07-22T02:30:47;4.30;;;4.10;;
11008;SDS011;5557;51.670;7.788;2022-07-22T02:33:14;6.63;;;4.30;;
11008;SDS011;5557;51.670;7.788;2022-07-22T02:35:42;4.83;;;4.33;;
11008;SDS011;5557;51.670;7.788;2022-07-22T02:38:09;4.50;;;4.30;;
11008;SDS011;5557;51.670;7.788;2022-07-22T02:40:36;5.37;;;4.20;;
11008;SDS011;5557;51.670;7.788;2022-07-22T02:43:03;4.27;;;4.00;;
11008;SDS011;5557;51.670;7.788;2022-07-22T02:45:32;5.10;;;4.67;;
11008;SDS011;5557;51.670;7.788;2022-07-22T02:47:59;4.50;;;4.10;;
11008;SDS011;5557;51.670;7.788;2022-07-22T02:50:27;4.60;;;4.20;;
11008;SDS011;5557;51.670;7.788;2022-07-22T02:52:53;5.03;;;4.50;;
11008;SDS011;5557;51.670;7.788;2022-07-22T02:55:20;7.37;;;4.10;;
11008;SDS011;5557;51.670;7.788;2022-07-22T02:57:47;4.77;;;4.27;;
11008;SDS011;5557;51.670;7.788;2022-07-22T03:00:14;5.93;;;4.70;;
11008;SDS011;5557;51.670;7.788;2022-07-22T03:02:42;4.93;;;4.40;;
11008;SDS011;5557;51.670;7.788;2022-07-22T03:05:09;6.10;;;4.00;;
11008;SDS011;5557;51.670;7.788;2022-07-22T03:07:36;5.30;;;4.90;;
11008;SDS011;5557;51.670;7.788;2022-07-22T03:10:03;4.50;;;4.10;;
11008;SDS011;5557;51.670;7.788;2022-07-22T03:12:31;10.23;;;4.60;;
11008;SDS011;5557;51.670;7.788;2022-07-22T03:14:58;8.57;;;5.23;;
11008;SDS011;5557;51.670;7.788;2022-07-22T03:17:25;10.70;;;5.40;;
11008;SDS011;5557;51.670;7.788;2022-07-22T03:19:52;9.20;;;4.67;;
11008;SDS011;5557;51.670;7.788;2022-07-22T03:22:18;5.43;;;5.00;;
11008;SDS011;5557;51.670;7.788;2022-07-22T03:24:45;5.53;;;4.97;;
11008;SDS011;5557;51.670;7.788;2022-07-22T03:27:12;8.40;;;5.37;;
11008;SDS011;5557;51.670;7.788;2022-07-22T03:29:39;8.90;;;4.90;;
11008;SDS011;5557;51.670;7.788;2022-07-22T03:32:06;5.03;;;4.73;;
11008;SDS011;5557;51.670;7.788;2022-07-22T03:34:33;8.27;;;4.77;;
11008;SDS011;5557;51.670;7.788;2022-07-22T03:37:00;8.53;;;5.20;;
11008;SDS011;5557;51.670;7.788;2022-07-22T03:39:27;5.83;;;5.27;;
11008;SDS011;5557;51.670;7.788;2022-07-22T03:41:54;7.23;;;5.37;;
11008;SDS011;5557;51.670;7.788;2022-07-22T03:44:21;6.63;;;4.87;;
11008;SDS011;5557;51.670;7.788;2022-07-22T03:46:48;5.60;;;4.63;;
11008;SDS011;5557;51.670;7.788;2022-07-22T03:49:15;8.70;;;4.90;;
11008;SDS011;5557;51.670;7.788;2022-07-22T03:51:42;5.30;;;4.77;;
11008;SDS011;5557;51.670;7.788;2022-07-22T03:54:09;10.63;;;5.67;;
11008;SDS011;5557;51.670;7.788;2022-07-22T03:56:36;6.10;;;5.40;;
11008;SDS011;5557;51.670;7.788;2022-07-22T03:59:03;8.33;;;5.97;;
11008;SDS011;5557;51.670;7.788;2022-07-22T04:01:30;7.00;;;5.87;;
11008;SDS011;5557;51.670;7.788;2022-07-22T04:03:58;11.70;;;5.33;;
11008;SDS011;5557;51.670;7.788;2022-07-22T04:06:29;5.80;;;5.23;;
11008;SDS011;5557;51.670;7.788;2022-07-22T04:08:57;7.03;;;6.00;;
11008;SDS011;5557;51.670;7.788;2022-07-22T04:11:25;6.07;;;5.67;;
11008;SDS011;5557;51.670;7.788;2022-07-22T04:13:53;10.13;;;6.37;;
11008;SDS011;5557;51.670;7.788;2022-07-22T04:16:20;7.10;;;5.97;;
11008;SDS011;5557;51.670;7.788;2022-07-22T04:18:47;6.50;;;5.73;;
11008;SDS011;5557;51.670;7.788;2022-07-22T04:21:14;7.30;;;6.10;;
11008;SDS011;5557;51.670;7.788;2022-07-22T04:23:41;8.40;;;6.10;;
11008;SDS011;5557;51.670;7.788;2022-07-22T04:26:08;8.07;;;5.60;;
11008;SDS011;5557;51.670;7.788;2022-07-22T04:28:35;7.97;;;6.13;;
11008;SDS011;5557;51.670;7.788;2022-07-22T04:31:02;12.33;;;7.70;;
11008;SDS011;5557;51.670;7.788;2022-07-22T04:33:30;7.60;;;5.90;;
11008;SDS011;5557;51.670;7.788;2022-07-22T04:35:57;10.00;;;7.00;;
11008;SDS011;5557;51.670;7.788;2022-07-22T04:38:25;13.13;;;6.87;;
11008;SDS011;5557;51.670;7.788;2022-07-22T04:40:52;6.23;;;5.70;;
11008;SDS011;5557;51.670;7.788;2022-07-22T04:43:20;10.73;;;6.63;;
11008;SDS011;5557;51.670;7.788;2022-07-22T04:45:47;11.03;;;6.70;;
11008;SDS011;5557;51.670;7.788;2022-07-22T04:48:14;8.93;;;6.87;;
11008;SDS011;5557;51.670;7.788;2022-07-22T04:50:42;16.50;;;7.17;;
11008;SDS011;5557;51.670;7.788;2022-07-22T04:53:09;17.03;;;7.60;;
11008;SDS011;5557;51.670;7.788;2022-07-22T04:55:37;6.97;;;5.40;;
11008;SDS011;5557;51.670;7.788;2022-07-22T04:58:05;6.50;;;6.00;;
11008;SDS011;5557;51.670;7.788;2022-07-22T05:00:37;22.03;;;6.10;;
11008;SDS011;5557;51.670;7.788;2022-07-22T05:03:04;7.67;;;6.00;;
11008;SDS011;5557;51.670;7.788;2022-07-22T05:05:31;9.03;;;6.33;;
11008;SDS011;5557;51.670;7.788;2022-07-22T05:07:58;10.80;;;5.37;;
11008;SDS011;5557;51.670;7.788;2022-07-22T05:10:25;15.70;;;6.60;;
11008;SDS011;5557;51.670;7.788;2022-07-22T05:12:53;7.90;;;5.90;;
11008;SDS011;5557;51.670;7.788;2022-07-22T05:15:20;8.47;;;6.00;;
11008;SDS011;5557;51.670;7.788;2022-07-22T05:17:47;6.13;;;5.13;;
11008;SDS011;5557;51.670;7.788;2022-07-22T05:20:14;9.03;;;6.07;;
11008;SDS011;5557;51.670;7.788;2022-07-22T05:22:42;7.37;;;5.67;;
11008;SDS011;5557;51.670;7.788;2022-07-22T05:25:09;7.03;;;3.90;;
11008;SDS011;5557;51.670;7.788;2022-07-22T05:27:36;9.50;;;4.50;;
11008;SDS011;5557;51.670;7.788;2022-07-22T05:30:04;14.90;;;6.00;;
11008;SDS011;5557;51.670;7.788;2022-07-22T05:32:31;13.17;;;3.80;;
11008;SDS011;5557;51.670;7.788;2022-07-22T05:34:58;12.80;;;4.10;;
11008;SDS011;5557;51.670;7.788;2022-07-22T05:37:26;11.77;;;4.70;;
11008;SDS011;5557;51.670;7.788;2022-07-22T05:39:52;11.27;;;4.30;;
11008;SDS011;5557;51.670;7.788;2022-07-22T05:42:20;10.00;;;4.20;;
11008;SDS011;5557;51.670;7.788;2022-07-22T05:44:47;12.00;;;3.90;;
11008;SDS011;5557;51.670;7.788;2022-07-22T05:47:14;4.33;;;3.77;;
11008;SDS011;5557;51.670;7.788;2022-07-22T05:49:41;8.00;;;3.43;;
11008;SDS011;5557;51.670;7.788;2022-07-22T05:52:10;6.10;;;5.17;;
11008;SDS011;5557;51.670;7.788;2022-07-22T05:54:37;11.93;;;5.10;;
11008;SDS011;5557;51.670;7.788;2022-07-22T05:57:06;10.03;;;4.07;;
11008;SDS011;5557;51.670;7.788;2022-07-22T05:59:58;7.93;;;5.07;;
11008;SDS011;5557;51.670;7.788;2022-07-22T06:02:47;6.87;;;3.47;;
11008;SDS011;5557;51.670;7.788;2022-07-22T06:05:14;10.77;;;4.07;;
11008;SDS011;5557;51.670;7.788;2022-07-22T06:08:01;10.97;;;3.60;;
11008;SDS011;5557;51.670;7.788;2022-07-22T06:10:29;12.63;;;3.73;;
11008;SDS011;5557;51.670;7.788;2022-07-22T06:16:54;9.60;;;3.57;;
11008;SDS011;5557;51.670;7.788;2022-07-22T06:19:20;12.47;;;3.53;;
11008;SDS011;5557;51.670;7.788;2022-07-22T06:21:47;9.70;;;3.50;;
11008;SDS011;5557;51.670;7.788;2022-07-22T06:24:14;5.63;;;3.53;;
11008;SDS011;5557;51.670;7.788;2022-07-22T06:26:41;4.20;;;3.07;;
11008;SDS011;5557;51.670;7.788;2022-07-22T06:29:10;6.70;;;3.20;;
11008;SDS011;5557;51.670;7.788;2022-07-22T06:31:37;12.80;;;3.80;;
11008;SDS011;5557;51.670;7.788;2022-07-22T06:34:04;8.13;;;3.60;;
11008;SDS011;5557;51.670;7.788;2022-07-22T06:36:32;7.50;;;3.80;;
11008;SDS011;5557;51.670;7.788;2022-07-22T06:38:59;5.33;;;3.83;;
11008;SDS011;5557;51.670;7.788;2022-07-22T06:41:26;4.37;;;3.03;;
11008;SDS011;5557;51.670;7.788;2022-07-22T06:43:56;14.60;;;3.13;;
11008;SDS011;5557;51.670;7.788;2022-07-22T06:46:23;4.53;;;2.50;;
11008;SDS011;5557;51.670;7.788;2022-07-22T06:48:50;5.87;;;2.87;;
11008;SDS011;5557;51.670;7.788;2022-07-22T06:51:18;4.67;;;2.90;;
11008;SDS011;5557;51.670;7.788;2022-07-22T06:53:52;9.67;;;2.77;;
11008;SDS011;5557;51.670;7.788;2022-07-22T06:56:19;7.53;;;2.93;;
11008;SDS011;5557;51.670;7.788;2022-07-22T06:58:47;7.00;;;2.80;;
11008;SDS011;5557;51.670;7.788;2022-07-22T07:01:14;3.07;;;2.37;;
11008;SDS011;5557;51.670;7.788;2022-07-22T07:03:41;6.23;;;2.83;;
11008;SDS011;5557;51.670;7.788;2022-07-22T07:06:09;5.07;;;2.60;;
11008;SDS011;5557;51.670;7.788;2022-07-22T07:08:38;8.90;;;3.23;;
11008;SDS011;5557;51.670;7.788;2022-07-22T07:11:06;7.37;;;2.83;;
11008;SDS011;5557;51.670;7.788;2022-07-22T07:13:34;8.93;;;3.37;;
11008;SDS011;5557;51.670;7.788;2022-07-22T07:16:01;7.60;;;3.40;;
11008;SDS011;5557;51.670;7.788;2022-07-22T07:18:28;8.73;;;2.67;;
11008;SDS011;5557;51.670;7.788;2022-07-22T07:20:55;4.63;;;3.17;;
11008;SDS011;5557;51.670;7.788;2022-07-22T07:23:22;6.33;;;2.97;;
11008;SDS011;5557;51.670;7.788;2022-07-22T07:25:49;7.27;;;3.00;;
11008;SDS011;5557;51.670;7.788;2022-07-22T07:28:16;11.67;;;3.97;;
11008;SDS011;5557;51.670;7.788;2022-07-22T07:30:45;7.93;;;3.00;;
11008;SDS011;5557;51.670;7.788;2022-07-22T07:33:13;14.40;;;3.57;;
11008;SDS011;5557;51.670;7.788;2022-07-22T07:35:40;10.27;;;2.40;;
11008;SDS011;5557;51.670;7.788;2022-07-22T07:38:07;5.37;;;2.43;;
11008;SDS011;5557;51.670;7.788;2022-07-22T07:40:34;3.10;;;1.87;;
11008;SDS011;5557;51.670;7.788;2022-07-22T07:43:01;7.80;;;2.73;;
11008;SDS011;5557;51.670;7.788;2022-07-22T07:45:30;13.10;;;2.97;;
11008;SDS011;5557;51.670;7.788;2022-07-22T07:47:57;9.07;;;2.30;;
11008;SDS011;5557;51.670;7.788;2022-07-22T07:50:25;2.47;;;2.27;;
11008;SDS011;5557;51.670;7.788;2022-07-22T07:52:52;4.10;;;2.60;;
11008;SDS011;5557;51.670;7.788;2022-07-22T07:55:19;3.50;;;1.67;;
11008;SDS011;5557;51.670;7.788;2022-07-22T07:57:47;4.33;;;2.37;;
11008;SDS011;5557;51.670;7.788;2022-07-22T08:00:17;8.07;;;2.50;;
11008;SDS011;5557;51.670;7.788;2022-07-22T08:02:47;6.87;;;3.00;;
11008;SDS011;5557;51.670;7.788;2022-07-22T08:05:15;7.53;;;2.17;;
11008;SDS011;5557;51.670;7.788;2022-07-22T08:07:42;5.77;;;2.37;;
11008;SDS011;5557;51.670;7.788;2022-07-22T08:10:09;3.40;;;2.53;;
11008;SDS011;5557;51.670;7.788;2022-07-22T08:12:57;11.40;;;2.80;;
11008;SDS011;5557;51.670;7.788;2022-07-22T08:15:26;7.63;;;2.87;;
11008;SDS011;5557;51.670;7.788;2022-07-22T08:17:53;11.33;;;2.43;;
11008;SDS011;5557;51.670;7.788;2022-07-22T08:20:22;11.33;;;2.67;;
11008;SDS011;5557;51.670;7.788;2022-07-22T08:22:51;5.17;;;2.30;;
11008;SDS011;5557;51.670;7.788;2022-07-22T08:25:19;15.10;;;3.60;;
11008;SDS011;5557;51.670;7.788;2022-07-22T08:27:46;3.27;;;2.70;;
11008;SDS011;5557;51.670;7.788;2022-07-22T08:30:13;4.07;;;2.00;;
11008;SDS011;5557;51.670;7.788;2022-07-22T08:32:41;5.30;;;2.80;;
11008;SDS011;5557;51.670;7.788;2022-07-22T08:35:09;9.27;;;3.53;;
11008;SDS011;5557;51.670;7.788;2022-07-22T08:37:36;4.90;;;2.30;;
11008;SDS011;5557;51.670;7.788;2022-07-22T08:40:04;7.83;;;2.10;;
11008;SDS011;5557;51.670;7.788;2022-07-22T08:42:36;2.43;;;1.77;;
11008;SDS011;5557;51.670;7.788;2022-07-22T08:45:05;2.73;;;1.57;;
11008;SDS011;5557;51.670;7.788;2022-07-22T08:47:46;3.90;;;1.93;;
11008;SDS011;5557;51.670;7.788;2022-07-22T08:50:16;4.30;;;1.97;;
11008;SDS011;5557;51.670;7.788;2022-07-22T08:52:43;5.00;;;1.90;;
11008;SDS011;5557;51.670;7.788;2022-07-22T08:55:10;5.60;;;2.30;;
11008;SDS011;5557;51.670;7.788;2022-07-22T08:57:37;4.73;;;2.63;;
11008;SDS011;5557;51.670;7.788;2022-07-22T09:00:10;7.13;;;3.10;;
11008;SDS011;5557;51.670;7.788;2022-07-22T09:02:40;3.47;;;1.97;;
11008;SDS011;5557;51.670;7.788;2022-07-22T09:05:09;4.93;;;2.50;;
11008;SDS011;5557;51.670;7.788;2022-07-22T09:07:57;5.63;;;3.07;;
11008;SDS011;5557;51.670;7.788;2022-07-22T09:10:30;1.97;;;1.60;;
11008;SDS011;5557;51.670;7.788;2022-07-22T09:12:59;5.37;;;2.40;;
11008;SDS011;5557;51.670;7.788;2022-07-22T09:15:35;2.03;;;1.93;;
11008;SDS011;5557;51.670;7.788;2022-07-22T09:18:05;3.00;;;2.17;;
11008;SDS011;5557;51.670;7.788;2022-07-22T09:20:36;1.83;;;1.73;;
11008;SDS011;5557;51.670;7.788;2022-07-22T09:23:10;6.13;;;2.83;;
11008;SDS011;5557;51.670;7.788;2022-07-22T09:25:39;2.63;;;2.43;;
11008;SDS011;5557;51.670;7.788;2022-07-22T09:28:11;3.13;;;1.97;;
11008;SDS011;5557;51.670;7.788;2022-07-22T09:30:49;5.20;;;1.97;;
11008;SDS011;5557;51.670;7.788;2022-07-22T09:33:23;3.97;;;2.13;;
11008;SDS011;5557;51.670;7.788;2022-07-22T09:35:51;3.10;;;2.10;;
11008;SDS011;5557;51.670;7.788;2022-07-22T09:38:20;3.97;;;1.77;;
11008;SDS011;5557;51.670;7.788;2022-07-22T09:40:54;5.00;;;2.90;;
11008;SDS011;5557;51.670;7.788;2022-07-22T09:43:21;2.93;;;2.33;;
11008;SDS011;5557;51.670;7.788;2022-07-22T09:45:50;3.67;;;3.37;;
11008;SDS011;5557;51.670;7.788;2022-07-22T09:48:20;7.33;;;3.53;;
11008;SDS011;5557;51.670;7.788;2022-07-22T09:50:48;6.70;;;3.23;;
11008;SDS011;5557;51.670;7.788;2022-07-22T09:53:17;3.40;;;3.10;;
11008;SDS011;5557;51.670;7.788;2022-07-22T09:55:46;4.40;;;3.53;;
11008;SDS011;5557;51.670;7.788;2022-07-22T09:58:13;4.07;;;3.67;;
11008;SDS011;5557;51.670;7.788;2022-07-22T10:00:41;4.40;;;2.70;;
11008;SDS011;5557;51.670;7.788;2022-07-22T10:03:13;2.50;;;2.20;;
11008;SDS011;5557;51.670;7.788;2022-07-22T10:05:44;2.37;;;2.10;;
11008;SDS011;5557;51.670;7.788;2022-07-22T10:08:12;2.80;;;1.63;;
11008;SDS011;5557;51.670;7.788;2022-07-22T10:10:39;3.50;;;2.10;;
11008;SDS011;5557;51.670;7.788;2022-07-22T10:13:07;5.47;;;2.77;;
11008;SDS011;5557;51.670;7.788;2022-07-22T10:15:35;3.87;;;2.53;;
11008;SDS011;5557;51.670;7.788;2022-07-22T10:18:05;3.23;;;2.63;;
11008;SDS011;5557;51.670;7.788;2022-07-22T10:20:34;3.77;;;2.37;;
11008;SDS011;5557;51.670;7.788;2022-07-22T10:23:06;2.27;;;2.13;;
11008;SDS011;5557;51.670;7.788;2022-07-22T10:28:36;6.20;;;2.10;;
11008;SDS011;5557;51.670;7.788;2022-07-22T10:31:23;2.90;;;2.53;;
11008;SDS011;5557;51.670;7.788;2022-07-22T10:33:55;3.77;;;2.77;;
11008;SDS011;5557;51.670;7.788;2022-07-22T10:36:31;2.53;;;2.33;;
11008;SDS011;5557;51.670;7.788;2022-07-22T10:39:02;4.33;;;2.80;;
11008;SDS011;5557;51.670;7.788;2022-07-22T10:41:44;4.17;;;3.17;;
11008;SDS011;5557;51.670;7.788;2022-07-22T10:47:51;3.93;;;3.57;;
11008;SDS011;5557;51.670;7.788;2022-07-22T10:50:46;5.67;;;4.60;;
11008;SDS011;5557;51.670;7.788;2022-07-22T10:53:25;5.23;;;4.73;;
11008;SDS011;5557;51.670;7.788;2022-07-22T10:56:44;3.67;;;3.37;;
11008;SDS011;5557;51.670;7.788;2022-07-22T10:59:08;6.13;;;3.60;;
11008;SDS011;5557;51.670;7.788;2022-07-22T11:01:44;4.40;;;3.57;;
11008;SDS011;5557;51.670;7.788;2022-07-22T11:04:16;3.60;;;3.20;;
11008;SDS011;5557;51.670;7.788;2022-07-22T11:06:51;14.13;;;4.40;;
11008;SDS011;5557;51.670;7.788;2022-07-22T11:09:20;18.20;;;4.60;;
11008;SDS011;5557;51.670;7.788;2022-07-22T11:11:54;7.13;;;3.73;;
11008;SDS011;5557;51.670;7.788;2022-07-22T11:14:32;4.90;;;3.20;;
11008;SDS011;5557;51.670;7.788;2022-07-22T11:17:07;11.23;;;2.57;;
11008;SDS011;5557;51.670;7.788;2022-07-22T11:19:37;3.33;;;3.03;;
11008;SDS011;5557;51.670;7.788;2022-07-22T11:22:08;6.03;;;2.70;;
11008;SDS011;5557;51.670;7.788;2022-07-22T11:24:37;4.53;;;2.77;;
11008;SDS011;5557;51.670;7.788;2022-07-22T11:27:15;3.03;;;2.53;;
11008;SDS011;5557;51.670;7.788;2022-07-22T11:29:47;4.33;;;2.83;;
11008;SDS011;5557;51.670;7.788;2022-07-22T11:32:15;3.10;;;2.90;;
11008;SDS011;5557;51.670;7.788;2022-07-22T11:34:43;7.57;;;3.77;;
11008;SDS011;5557;51.670;7.788;2022-07-22T11:37:14;6.30;;;2.77;;
11008;SDS011;5557;51.670;7.788;2022-07-22T11:39:43;4.03;;;2.27;;
11008;SDS011;5557;51.670;7.788;2022-07-22T11:42:10;6.47;;;3.67;;
11008;SDS011;5557;51.670;7.788;2022-07-22T11:44:38;3.53;;;2.70;;
11008;SDS011;5557;51.670;7.788;2022-07-22T11:47:06;4.10;;;2.20;;
11008;SDS011;5557;51.670;7.788;2022-07-22T11:49:35;2.63;;;2.43;;
11008;SDS011;5557;51.670;7.788;2022-07-22T11:52:07;2.83;;;2.63;;
11008;SDS011;5557;51.670;7.788;2022-07-22T11:54:39;4.70;;;2.37;;
11008;SDS011;5557;51.670;7.788;2022-07-22T11:57:09;5.23;;;2.47;;
11008;SDS011;5557;51.670;7.788;2022-07-22T11:59:36;2.80;;;2.60;;
11008;SDS011;5557;51.670;7.788;2022-07-22T12:02:03;2.70;;;2.50;;
11008;SDS011;5557;51.670;7.788;2022-07-22T12:04:32;7.73;;;3.63;;
11008;SDS011;5557;51.670;7.788;2022-07-22T12:07:01;6.90;;;4.27;;
11008;SDS011;5557;51.670;7.788;2022-07-22T12:09:35;3.30;;;3.10;;
11008;SDS011;5557;51.670;7.788;2022-07-22T12:12:04;4.80;;;2.77;;
11008;SDS011;5557;51.670;7.788;2022-07-22T12:14:32;7.23;;;2.90;;
11008;SDS011;5557;51.670;7.788;2022-07-22T12:17:07;3.77;;;2.70;;
11008;SDS011;5557;51.670;7.788;2022-07-22T12:19:39;4.03;;;3.53;;
11008;SDS011;5557;51.670;7.788;2022-07-22T12:22:08;3.93;;;3.43;;
11008;SDS011;5557;51.670;7.788;2022-07-22T12:24:40;5.37;;;3.47;;
11008;SDS011;5557;51.670;7.788;2022-07-22T12:27:10;5.33;;;3.70;;
11008;SDS011;5557;51.670;7.788;2022-07-22T12:29:43;4.17;;;3.07;;
11008;SDS011;5557;51.670;7.788;2022-07-22T12:32:18;3.87;;;3.00;;
11008;SDS011;5557;51.670;7.788;2022-07-22T12:34:58;3.40;;;3.20;;
11008;SDS011;5557;51.670;7.788;2022-07-22T12:37:34;3.57;;;3.27;;
11008;SDS011;5557;51.670;7.788;2022-07-22T12:40:18;5.77;;;5.13;;
11008;SDS011;5557;51.670;7.788;2022-07-22T12:43:03;5.20;;;4.70;;
11008;SDS011;5557;51.670;7.788;2022-07-22T12:45:31;11.83;;;5.60;;
11008;SDS011;5557;51.670;7.788;2022-07-22T12:48:06;6.77;;;4.93;;
11008;SDS011;5557;51.670;7.788;2022-07-22T12:50:56;11.13;;;4.27;;
11008;SDS011;5557;51.670;7.788;2022-07-22T12:53:25;7.80;;;6.00;;
11008;SDS011;5557;51.670;7.788;2022-07-22T12:55:55;9.33;;;6.83;;
11008;SDS011;5557;51.670;7.788;2022-07-22T12:58:29;9.83;;;7.47;;
11008;SDS011;5557;51.670;7.788;2022-07-22T13:00:58;9.43;;;7.93;;
11008;SDS011;5557;51.670;7.788;2022-07-22T13:03:26;10.27;;;7.77;;
11008;SDS011;5557;51.670;7.788;2022-07-22T13:05:55;12.23;;;6.90;;
11008;SDS011;5557;51.670;7.788;2022-07-22T13:08:24;11.33;;;7.10;;
11008;SDS011;5557;51.670;7.788;2022-07-22T13:11:01;8.90;;;6.60;;
11008;SDS011;5557;51.670;7.788;2022-07-22T13:13:28;8.47;;;6.67;;
11008;SDS011;5557;51.670;7.788;2022-07-22T13:15:55;11.73;;;7.07;;
11008;SDS011;5557;51.670;7.788;2022-07-22T13:18:23;12.60;;;7.50;;
11008;SDS011;5557;51.670;7.788;2022-07-22T13:20:50;8.43;;;7.57;;
11008;SDS011;5557;51.670;7.788;2022-07-22T13:23:16;7.47;;;6.40;;
11008;SDS011;5557;51.670;7.788;2022-07-22T13:25:43;8.87;;;6.83;;
11008;SDS011;5557;51.670;7.788;2022-07-22T13:28:10;10.50;;;6.90;;
11008;SDS011;5557;51.670;7.788;2022-07-22T13:30:37;10.17;;;5.97;;
11008;SDS011;5557;51.670;7.788;2022-07-22T13:33:05;9.93;;;5.83;;
11008;SDS011;5557;51.670;7.788;2022-07-22T13:35:32;16.47;;;6.00;;
11008;SDS011;5557;51.670;7.788;2022-07-22T13:37:59;5.40;;;4.90;;
11008;SDS011;5557;51.670;7.788;2022-07-22T13:40:26;6.60;;;4.73;;
11008;SDS011;5557;51.670;7.788;2022-07-22T13:42:53;9.03;;;6.23;;
11008;SDS011;5557;51.670;7.788;2022-07-22T13:45:20;6.23;;;4.60;;
11008;SDS011;5557;51.670;7.788;2022-07-22T13:47:47;5.37;;;3.80;;
11008;SDS011;5557;51.670;7.788;2022-07-22T13:50:14;4.87;;;4.40;;
11008;SDS011;5557;51.670;7.788;2022-07-22T13:52:41;11.30;;;5.03;;
11008;SDS011;5557;51.670;7.788;2022-07-22T13:55:08;6.93;;;5.40;;
11008;SDS011;5557;51.670;7.788;2022-07-22T13:57:35;5.83;;;5.00;;
11008;SDS011;5557;51.670;7.788;2022-07-22T14:00:03;5.37;;;4.87;;
11008;SDS011;5557;51.670;7.788;2022-07-22T14:02:39;6.27;;;5.27;;
11008;SDS011;5557;51.670;7.788;2022-07-22T14:05:07;14.53;;;5.50;;
11008;SDS011;5557;51.670;7.788;2022-07-22T14:07:34;7.63;;;6.83;;
11008;SDS011;5557;51.670;7.788;2022-07-22T14:10:01;13.90;;;7.33;;
11008;SDS011;5557;51.670;7.788;2022-07-22T14:12:29;19.17;;;8.57;;
11008;SDS011;5557;51.670;7.788;2022-07-22T14:14:56;8.17;;;7.47;;
11008;SDS011;5557;51.670;7.788;2022-07-22T14:17:23;14.87;;;8.33;;
11008;SDS011;5557;51.670;7.788;2022-07-22T14:19:51;7.53;;;6.77;;
11008;SDS011;5557;51.670;7.788;2022-07-22T14:22:26;5.27;;;4.70;;
11008;SDS011;5557;51.670;7.788;2022-07-22T14:24:53;5.10;;;4.70;;
11008;SDS011;5557;51.670;7.788;2022-07-22T14:27:20;9.50;;;6.20;;
11008;SDS011;5557;51.670;7.788;2022-07-22T14:29:47;6.67;;;5.00;;
11008;SDS011;5557;51.670;7.788;2022-07-22T14:32:14;8.07;;;5.50;;
11008;SDS011;5557;51.670;7.788;2022-07-22T14:34:41;8.53;;;6.37;;
11008;SDS011;5557;51.670;7.788;2022-07-22T14:37:08;9.57;;;7.47;;
11008;SDS011;5557;51.670;7.788;2022-07-22T14:39:35;11.47;;;9.30;;
11008;SDS011;5557;51.670;7.788;2022-07-22T14:42:02;9.97;;;8.90;;
11008;SDS011;5557;51.670;7.788;2022-07-22T14:44:29;10.57;;;9.47;;
11008;SDS011;5557;51.670;7.788;2022-07-22T14:46:56;14.87;;;10.90;;
11008;SDS011;5557;51.670;7.788;2022-07-22T14:49:23;21.63;;;9.90;;
11008;SDS011;5557;51.670;7.788;2022-07-22T14:51:50;12.33;;;9.47;;
11008;SDS011;5557;51.670;7.788;2022-07-22T14:54:17;12.07;;;8.93;;
11008;SDS011;5557;51.670;7.788;2022-07-22T14:56:45;12.90;;;9.40;;
11008;SDS011;5557;51.670;7.788;2022-07-22T14:59:13;16.03;;;9.93;;
11008;SDS011;5557;51.670;7.788;2022-07-22T15:01:41;15.20;;;10.37;;
11008;SDS011;5557;51.670;7.788;2022-07-22T15:04:08;15.53;;;9.20;;
11008;SDS011;5557;51.670;7.788;2022-07-22T15:06:34;15.17;;;10.03;;
11008;SDS011;5557;51.670;7.788;2022-07-22T15:09:01;16.07;;;10.37;;
11008;SDS011;5557;51.670;7.788;2022-07-22T15:11:29;14.40;;;9.73;;
11008;SDS011;5557;51.670;7.788;2022-07-22T15:13:55;14.00;;;9.20;;
11008;SDS011;5557;51.670;7.788;2022-07-22T15:16:23;12.80;;;10.53;;
11008;SDS011;5557;51.670;7.788;2022-07-22T15:18:50;20.10;;;10.50;;